createdAt,value
2022-12-11T00:01:21.722Z,97188.44
2022-12-11T00:03:50.098Z,97184.86
2022-12-11T00:06:21.319Z,97180.41
2022-12-11T00:08:54.082Z,97188.23
2022-12-11T00:11:23.632Z,97172.28
2022-12-11T00:13:51.762Z,97176.22
2022-12-11T00:16:25.238Z,97173.77
2022-12-11T00:18:55.487Z,97172.05
2022-12-11T00:21:23.594Z,97158.59
2022-12-11T00:23:52.133Z,97165.27
2022-12-11T00:26:28.020Z,97160.99
2022-12-11T00:28:57.179Z,97148.86
2022-12-11T00:31:25.437Z,97147.95
2022-12-11T00:33:53.528Z,97150.37
2022-12-11T00:36:27.484Z,97151.58
2022-12-11T00:38:55.699Z,97149.56
2022-12-11T00:41:24.087Z,97150.09
2022-12-11T00:43:52.221Z,97143.95
2022-12-11T00:46:21.510Z,97147.79
2022-12-11T00:48:50.294Z,97148.52
2022-12-11T00:51:18.339Z,97149.08
2022-12-11T00:53:46.767Z,97144.44
2022-12-11T00:56:19.330Z,97148.85
2022-12-11T00:58:49.277Z,97146.05
2022-12-11T01:01:23.337Z,97150.21
2022-12-11T01:03:53.329Z,97152.80
2022-12-11T01:06:24.540Z,97153.92
2022-12-11T01:09:12.574Z,97158.08
2022-12-11T01:11:43.004Z,97160.27
2022-12-11T01:14:12.040Z,97159.44
2022-12-11T01:16:40.439Z,97150.63
2022-12-11T01:19:09.340Z,97153.38
2022-12-11T01:21:39.603Z,97151.83
2022-12-11T01:24:07.920Z,97145.23
2022-12-11T01:26:36.282Z,97143.52
2022-12-11T01:29:04.429Z,97142.52
2022-12-11T01:31:32.616Z,97145.19
2022-12-11T01:34:00.617Z,97140.58
2022-12-11T01:36:29.076Z,97141.39
2022-12-11T01:38:57.231Z,97136.24
2022-12-11T01:41:25.622Z,97123.19
2022-12-11T01:43:58.658Z,97130.50
2022-12-11T01:46:27.860Z,97126.48
2022-12-11T01:48:56.572Z,97127.14
2022-12-11T01:51:25.398Z,97127.06
2022-12-11T01:54:00.910Z,97130.30
2022-12-11T01:56:32.910Z,97129.23
2022-12-11T01:59:07.467Z,97129.65
2022-12-11T02:01:53.249Z,97130.14
2022-12-11T02:04:21.587Z,97128.94
2022-12-11T02:06:52.022Z,97125.83
2022-12-11T02:09:28.237Z,97128.98
2022-12-11T02:12:39.328Z,97130.41
2022-12-11T02:15:16.527Z,97130.59
2022-12-11T02:17:48.057Z,97132.64
2022-12-11T02:20:34.184Z,97133.59
2022-12-11T02:23:13.260Z,97134.01
2022-12-11T02:25:49.277Z,97130.95
2022-12-11T02:28:35.508Z,97131.75
2022-12-11T02:31:14.638Z,97130.13
2022-12-11T02:33:58.083Z,97129.27
2022-12-11T02:36:28.620Z,97129.77
2022-12-11T02:38:59.210Z,97128.86
2022-12-11T02:41:29.911Z,97126.67
2022-12-11T02:43:58.339Z,97129.97
2022-12-11T02:46:26.247Z,97131.37
2022-12-11T02:48:56.593Z,97123.48
2022-12-11T02:51:30.001Z,97115.55
2022-12-11T02:53:59.859Z,97111.05
2022-12-11T02:56:43.575Z,97110.23
2022-12-11T02:59:16.618Z,97105.83
2022-12-11T03:01:45.749Z,97105.26
2022-12-11T03:04:13.917Z,97106.98
2022-12-11T03:06:53.436Z,97108.89
2022-12-11T03:09:21.702Z,97105.23
2022-12-11T03:11:49.752Z,97103.70
2022-12-11T03:14:17.675Z,97101.23
2022-12-11T03:17:00.161Z,97097.00
2022-12-11T03:19:35.838Z,97101.52
2022-12-11T03:22:11.763Z,97106.02
2022-12-11T03:25:10.906Z,97110.42
2022-12-11T03:27:39.055Z,97106.17
2022-12-11T03:30:19.330Z,97105.70
2022-12-11T03:33:04.122Z,97103.94
2022-12-11T03:35:40.747Z,97109.26
2022-12-11T03:38:11.203Z,97108.59
2022-12-11T03:40:40.041Z,97109.80
2022-12-11T03:43:09.877Z,97104.55
2022-12-11T03:45:40.411Z,97103.39
2022-12-11T03:48:09.507Z,97100.61
2022-12-11T03:50:40.535Z,97098.20
2022-12-11T03:53:08.452Z,97095.15
2022-12-11T03:55:39.736Z,97091.58
2022-12-11T03:58:07.756Z,97088.08
2022-12-11T04:00:36.294Z,97087.13
2022-12-11T04:03:14.690Z,97090.97
2022-12-11T04:05:48.831Z,97084.34
2022-12-11T04:08:17.441Z,97080.95
2022-12-11T04:10:45.398Z,97082.33
2022-12-11T04:13:13.513Z,97081.42
2022-12-11T04:15:41.476Z,97080.66
2022-12-11T04:18:28.796Z,97073.07
2022-12-11T04:21:16.216Z,97071.60
2022-12-11T04:24:02.595Z,97073.38
2022-12-11T04:26:30.528Z,97071.44
2022-12-11T04:28:58.457Z,97075.98
2022-12-11T04:31:26.600Z,97070.74
2022-12-11T04:33:54.602Z,97070.89
2022-12-11T04:36:22.618Z,97070.77
2022-12-11T04:38:50.673Z,97070.21
2022-12-11T04:41:18.537Z,97072.11
2022-12-11T04:43:46.417Z,97068.20
2022-12-11T04:46:17.911Z,97066.89
2022-12-11T04:48:46.445Z,97064.52
2022-12-11T04:51:14.737Z,97059.12
2022-12-11T04:53:42.594Z,97056.91
2022-12-11T04:56:14.935Z,97056.98
2022-12-11T04:58:43.405Z,97055.77
2022-12-11T05:01:22.331Z,97056.97
2022-12-11T05:03:50.470Z,97053.52
2022-12-11T05:06:18.640Z,97054.48
2022-12-11T05:08:46.582Z,97057.27
2022-12-11T05:11:15.432Z,97056.84
2022-12-11T05:13:44.519Z,97060.36
2022-12-11T05:16:15.520Z,97058.50
2022-12-11T05:18:44.005Z,97057.17
2022-12-11T05:21:14.888Z,97054.04
2022-12-11T05:23:43.291Z,97053.39
2022-12-11T05:26:14.768Z,97057.34
2022-12-11T05:28:43.337Z,97052.13
2022-12-11T05:31:16.076Z,97046.88
2022-12-11T05:33:45.314Z,97047.04
2022-12-11T05:36:15.145Z,97045.14
2022-12-11T05:38:43.096Z,97049.96
2022-12-11T05:41:16.288Z,97046.26
2022-12-11T05:43:45.184Z,97043.54
2022-12-11T05:46:25.407Z,97043.94
2022-12-11T05:48:57.313Z,97043.98
2022-12-11T05:51:25.578Z,97040.17
2022-12-11T05:53:55.796Z,97042.70
2022-12-11T05:56:29.944Z,97044.91
2022-12-11T05:58:58.376Z,97046.00
2022-12-11T06:01:27.809Z,97044.95
2022-12-11T06:03:57.232Z,97043.73
2022-12-11T06:06:25.575Z,97046.73
2022-12-11T06:08:55.471Z,97045.55
2022-12-11T06:11:24.974Z,97046.77
2022-12-11T06:13:53.247Z,97047.25
2022-12-11T06:16:23.258Z,97048.80
2022-12-11T06:18:54.682Z,97048.45
2022-12-11T06:21:28.780Z,97044.52
2022-12-11T06:23:58.239Z,97048.01
2022-12-11T06:26:27.365Z,97052.22
2022-12-11T06:28:55.451Z,97053.39
2022-12-11T06:31:23.534Z,97056.50
2022-12-11T06:33:51.425Z,97056.11
2022-12-11T06:36:21.846Z,97056.86
2022-12-11T06:38:50.338Z,97059.38
2022-12-11T06:41:18.732Z,97057.04
2022-12-11T06:43:46.918Z,97062.83
2022-12-11T06:46:17.366Z,97065.92
2022-12-11T06:48:46.452Z,97066.45
2022-12-11T06:51:23.891Z,97066.11
2022-12-11T06:53:56.334Z,97065.45
2022-12-11T06:56:29.760Z,97067.59
2022-12-11T06:59:00.594Z,97070.27
2022-12-11T07:01:30.951Z,97068.41
2022-12-11T07:03:59.769Z,97064.61
2022-12-11T07:06:28.689Z,97063.75
2022-12-11T07:08:57.210Z,97062.40
2022-12-11T07:11:25.236Z,97063.02
2022-12-11T07:13:53.209Z,97065.70
2022-12-11T07:16:21.617Z,97066.55
2022-12-11T07:18:50.766Z,97061.29
2022-12-11T07:21:20.642Z,97063.55
2022-12-11T07:23:50.151Z,97060.67
2022-12-11T07:26:21.222Z,97062.36
2022-12-11T07:28:49.590Z,97054.67
2022-12-11T07:31:21.279Z,97056.05
2022-12-11T07:33:57.168Z,97062.80
2022-12-11T07:36:25.511Z,97066.44
2022-12-11T07:38:54.096Z,97068.78
2022-12-11T07:41:23.378Z,97071.52
2022-12-11T07:43:55.470Z,97074.83
2022-12-11T07:46:24.801Z,97081.49
2022-12-11T07:48:53.247Z,97086.71
2022-12-11T07:51:28.087Z,97088.17
2022-12-11T07:54:06.430Z,97091.61
2022-12-11T07:56:34.779Z,97090.77
2022-12-11T07:59:04.916Z,97090.45
2022-12-11T08:01:38.229Z,97088.09
2022-12-11T08:04:08.858Z,97095.63
2022-12-11T08:06:38.095Z,97096.58
2022-12-11T08:09:08.790Z,97094.06
2022-12-11T08:11:36.708Z,97095.09
2022-12-11T08:14:06.730Z,97091.79
2022-12-11T08:16:34.848Z,97088.70
2022-12-11T08:19:04.074Z,97087.81
2022-12-11T08:21:31.990Z,97088.63
2022-12-11T08:23:59.909Z,97087.41
2022-12-11T08:26:30.065Z,97086.89
2022-12-11T08:28:58.861Z,97080.75
2022-12-11T08:31:27.080Z,97089.59
2022-12-11T08:33:56.611Z,97093.42
2022-12-11T08:36:25.554Z,97090.06
2022-12-11T08:38:55.909Z,97088.99
2022-12-11T08:41:29.428Z,97091.36
2022-12-11T08:43:58.822Z,97096.67
2022-12-11T08:46:30.335Z,97096.19
2022-12-11T08:48:59.442Z,97095.80
2022-12-11T08:51:28.213Z,97092.50
2022-12-11T08:53:59.966Z,97100.02
2022-12-11T08:56:28.488Z,97105.22
2022-12-11T08:58:59.173Z,97102.03
2022-12-11T09:01:28.347Z,97100.62
2022-12-11T09:03:57.454Z,97099.23
2022-12-11T09:06:29.545Z,97097.77
2022-12-11T09:09:00.177Z,97098.71
2022-12-11T09:11:32.208Z,97093.15
2022-12-11T09:14:06.845Z,97088.99
2022-12-11T09:16:40.630Z,97084.98
2022-12-11T09:19:12.995Z,97087.11
2022-12-11T09:21:41.738Z,97085.81
2022-12-11T09:24:12.123Z,97083.84
2022-12-11T09:26:41.156Z,97083.03
2022-12-11T09:29:12.943Z,97084.16
2022-12-11T09:31:41.298Z,97083.85
2022-12-11T09:34:12.900Z,97080.84
2022-12-11T09:36:44.510Z,97080.02
2022-12-11T09:39:15.753Z,97082.15
2022-12-11T09:41:53.301Z,97082.41
2022-12-11T09:44:42.200Z,97080.77
2022-12-11T09:47:22.364Z,97081.31
2022-12-11T09:49:57.161Z,97080.06
2022-12-11T09:52:49.825Z,97082.59
2022-12-11T09:55:24.318Z,97081.58
2022-12-11T09:57:58.246Z,97079.76
2022-12-11T10:01:03.676Z,97070.05
2022-12-11T10:03:31.603Z,97066.51
2022-12-11T10:06:12.476Z,97064.27
2022-12-11T10:08:59.393Z,97068.63
2022-12-11T10:11:36.558Z,97067.46
2022-12-11T10:14:25.599Z,97065.16
2022-12-11T10:17:11.746Z,97071.73
2022-12-11T10:19:41.048Z,97066.05
2022-12-11T10:22:17.409Z,97060.43
2022-12-11T10:25:10.653Z,97065.02
2022-12-11T10:27:41.058Z,97063.48
2022-12-11T10:30:28.345Z,97062.67
2022-12-11T10:33:18.638Z,97066.10
2022-12-11T10:35:57.051Z,97061.10
2022-12-11T10:38:28.491Z,97061.55
2022-12-11T10:41:01.634Z,97060.26
2022-12-11T10:43:38.592Z,97057.29
2022-12-11T10:46:14.636Z,97053.39
2022-12-11T10:48:50.354Z,97048.05
2022-12-11T10:51:18.396Z,97045.67
2022-12-11T10:54:07.170Z,97046.50
2022-12-11T10:56:38.363Z,97040.27
2022-12-11T10:59:07.137Z,97038.67
2022-12-11T11:01:36.035Z,97042.44
2022-12-11T11:04:19.183Z,97035.66
2022-12-11T11:06:47.408Z,97028.93
2022-12-11T11:09:35.166Z,97033.24
2022-12-11T11:12:07.942Z,97023.78
2022-12-11T11:14:36.112Z,97017.20
2022-12-11T11:17:04.129Z,97014.52
2022-12-11T11:19:35.081Z,97012.84
2022-12-11T11:22:07.677Z,97013.38
2022-12-11T11:24:40.806Z,97009.52
2022-12-11T11:27:27.705Z,97013.05
2022-12-11T11:29:56.855Z,97017.50
2022-12-11T11:32:32.273Z,97005.91
2022-12-11T11:35:26.712Z,97005.98
2022-12-11T11:38:15.294Z,97009.82
2022-12-11T11:41:04.816Z,97010.34
2022-12-11T11:44:04.642Z,97012.59
2022-12-11T11:46:48.920Z,97006.25
2022-12-11T11:49:37.876Z,97009.20
2022-12-11T11:52:11.955Z,97010.77
2022-12-11T11:55:28.043Z,97010.90
2022-12-11T11:58:03.291Z,97010.94
2022-12-11T12:00:33.877Z,97009.55
2022-12-11T12:03:09.668Z,97009.29
2022-12-11T12:05:52.941Z,97004.93
2022-12-11T12:08:26.938Z,97012.70
2022-12-11T12:11:08.370Z,97008.70
2022-12-11T12:13:49.557Z,97005.45
2022-12-11T12:19:31.974Z,97001.29
2022-12-11T12:22:05.389Z,97012.86
2022-12-11T12:24:55.243Z,97009.15
2022-12-11T12:27:51.714Z,97009.04
2022-12-11T12:30:21.976Z,97008.00
2022-12-11T12:33:15.258Z,97002.13
2022-12-11T12:36:11.025Z,96999.83
2022-12-11T12:38:45.205Z,97000.61
2022-12-11T12:41:24.989Z,96997.73
2022-12-11T12:44:17.178Z,96999.68
2022-12-11T12:46:55.871Z,96998.89
2022-12-11T12:49:35.731Z,97000.93
2022-12-11T12:52:06.822Z,97007.91
2022-12-11T12:54:36.274Z,97009.66
2022-12-11T12:57:05.309Z,97008.77
2022-12-11T12:59:33.380Z,97009.94
2022-12-11T13:02:02.890Z,97015.63
2022-12-11T13:04:58.891Z,97009.78
2022-12-11T13:07:30.790Z,97010.33
2022-12-11T13:10:23.141Z,97013.96
2022-12-11T13:12:51.718Z,97019.44
2022-12-11T13:15:37.111Z,97021.58
2022-12-11T13:18:27.622Z,97027.85
2022-12-11T13:20:55.745Z,97026.62
2022-12-11T13:23:29.761Z,97030.96
2022-12-11T13:26:00.836Z,97035.56
2022-12-11T13:28:37.804Z,97030.54
2022-12-11T13:31:14.991Z,97030.42
2022-12-11T13:33:48.751Z,97032.02
2022-12-11T13:36:24.311Z,97033.34
2022-12-11T13:38:57.076Z,97032.81
2022-12-11T13:41:25.289Z,97029.45
2022-12-11T13:43:53.986Z,97027.20
2022-12-11T13:46:27.806Z,97029.05
2022-12-11T13:49:01.100Z,97038.03
2022-12-11T13:51:32.194Z,97038.34
2022-12-11T13:54:17.362Z,97040.36
2022-12-11T13:56:55.824Z,97042.24
2022-12-11T13:59:28.930Z,97040.73
2022-12-11T14:02:05.436Z,97044.99
2022-12-11T14:04:34.431Z,97049.92
2022-12-11T14:07:06.842Z,97050.90
2022-12-11T14:09:39.276Z,97056.81
2022-12-11T14:12:07.474Z,97055.63
2022-12-11T14:14:58.476Z,97057.96
2022-12-11T14:17:28.480Z,97060.43
2022-12-11T14:19:59.450Z,97056.07
2022-12-11T14:22:28.457Z,97057.18
2022-12-11T14:24:59.857Z,97058.30
2022-12-11T14:27:30.803Z,97057.73
2022-12-11T14:30:09.726Z,97057.83
2022-12-11T14:32:44.905Z,97059.80
2022-12-11T14:35:27.796Z,97062.42
2022-12-11T14:37:58.512Z,97055.36
2022-12-11T14:40:34.738Z,97064.77
2022-12-11T14:43:11.295Z,97066.79
2022-12-11T14:45:40.116Z,97062.46
2022-12-11T14:48:17.040Z,97060.86
2022-12-11T14:50:50.271Z,97060.33
2022-12-11T14:53:23.436Z,97052.42
2022-12-11T14:55:51.872Z,97054.29
2022-12-11T14:58:26.750Z,97056.55
2022-12-11T15:00:59.707Z,97055.41
2022-12-11T15:03:34.404Z,97062.73
2022-12-11T15:06:03.861Z,97061.77
2022-12-11T15:08:35.380Z,97060.77
2022-12-11T15:11:06.333Z,97054.96
2022-12-11T15:13:37.447Z,97056.64
2022-12-11T15:16:07.434Z,97056.98
2022-12-11T15:18:40.070Z,97054.38
2022-12-11T15:21:12.100Z,97050.88
2022-12-11T15:23:58.532Z,97058.67
2022-12-11T15:26:56.991Z,97064.64
2022-12-11T15:29:39.786Z,97068.89
2022-12-11T15:32:10.920Z,97070.37
2022-12-11T15:34:45.875Z,97071.00
2022-12-11T15:37:24.445Z,97075.73
2022-12-11T15:39:54.823Z,97078.38
2022-12-11T15:42:25.792Z,97079.25
2022-12-11T15:44:55.631Z,97080.15
2022-12-11T15:47:27.117Z,97078.09
2022-12-11T15:50:27.837Z,97079.70
2022-12-11T15:52:56.306Z,97078.87
2022-12-11T15:55:27.709Z,97079.27
2022-12-11T15:58:00.143Z,97082.06
2022-12-11T16:00:29.189Z,97080.87
2022-12-11T16:02:57.918Z,97084.56
2022-12-11T16:05:27.339Z,97084.59
2022-12-11T16:07:59.640Z,97090.15
2022-12-11T16:10:28.091Z,97084.66
2022-12-11T16:12:59.698Z,97095.86
2022-12-11T16:15:28.055Z,97094.61
2022-12-11T16:18:01.740Z,97096.21
2022-12-11T16:20:31.277Z,97098.17
2022-12-11T16:22:59.330Z,97102.33
2022-12-11T16:25:31.931Z,97103.20
2022-12-11T16:28:01.842Z,97104.70
2022-12-11T16:30:29.881Z,97103.00
2022-12-11T16:32:57.871Z,97098.05
2022-12-11T16:35:26.192Z,97097.00
2022-12-11T16:37:55.063Z,97097.20
2022-12-11T16:40:24.036Z,97100.89
2022-12-11T16:42:52.539Z,97101.18
2022-12-11T16:45:26.390Z,97107.54
2022-12-11T16:47:55.156Z,97105.15
2022-12-11T16:50:23.869Z,97104.15
2022-12-11T16:52:51.929Z,97111.11
2022-12-11T16:55:22.408Z,97111.04
2022-12-11T16:58:05.384Z,97113.63
2022-12-11T17:00:33.333Z,97114.27
2022-12-11T17:03:01.665Z,97114.33
2022-12-11T17:05:29.803Z,97111.02
2022-12-11T17:07:59.315Z,97112.94
2022-12-11T17:10:27.308Z,97114.06
2022-12-11T17:12:55.342Z,97111.79
2022-12-11T17:15:23.824Z,97110.59
2022-12-11T17:17:51.864Z,97115.69
2022-12-11T17:20:20.229Z,97113.57
2022-12-11T17:22:48.490Z,97111.79
2022-12-11T17:25:22.428Z,97115.55
2022-12-11T17:27:50.493Z,97116.36
2022-12-11T17:30:18.508Z,97116.41
2022-12-11T17:32:49.697Z,97114.20
2022-12-11T17:35:17.661Z,97112.65
2022-12-11T17:37:45.839Z,97114.27
2022-12-11T17:40:13.726Z,97108.30
2022-12-11T17:42:44.254Z,97107.17
2022-12-11T17:45:12.778Z,97108.70
2022-12-11T17:47:40.970Z,97112.14
2022-12-11T17:50:09.983Z,97115.36
2022-12-11T17:52:43.831Z,97115.94
2022-12-11T17:55:12.650Z,97116.33
2022-12-11T17:57:41.097Z,97121.36
2022-12-11T18:00:09.349Z,97119.70
2022-12-11T18:02:40.387Z,97120.26
2022-12-11T18:05:08.705Z,97122.89
2022-12-11T18:07:37.935Z,97123.73
2022-12-11T18:10:07.370Z,97118.90
2022-12-11T18:12:35.794Z,97125.91
2022-12-11T18:15:05.443Z,97129.37
2022-12-11T18:17:33.939Z,97126.72
2022-12-11T18:20:04.227Z,97126.81
2022-12-11T18:22:32.402Z,97125.80
2022-12-11T18:25:03.964Z,97122.71
2022-12-11T18:27:38.608Z,97121.13
2022-12-11T18:30:07.345Z,97122.60
2022-12-11T18:32:36.173Z,97117.04
2022-12-11T18:35:04.715Z,97117.34
2022-12-11T18:37:32.940Z,97114.61
2022-12-11T18:40:02.716Z,97112.71
2022-12-11T18:42:33.445Z,97110.47
2022-12-11T18:45:02.318Z,97114.63
2022-12-11T18:47:30.584Z,97117.41
2022-12-11T18:50:03.908Z,97120.84
2022-12-11T18:52:35.839Z,97116.98
2022-12-11T18:55:04.720Z,97115.88
2022-12-11T18:57:33.386Z,97116.83
2022-12-11T19:00:07.404Z,97122.63
2022-12-11T19:02:35.833Z,97121.27
2022-12-11T19:05:04.464Z,97123.90
2022-12-11T19:07:32.584Z,97118.60
2022-12-11T19:10:00.875Z,97120.41
2022-12-11T19:12:28.948Z,97120.30
2022-12-11T19:14:56.934Z,97120.02
2022-12-11T19:17:25.310Z,97118.73
2022-12-11T19:19:53.717Z,97118.46
2022-12-11T19:22:21.603Z,97121.23
2022-12-11T19:24:49.916Z,97116.35
2022-12-11T19:27:18.163Z,97113.24
2022-12-11T19:29:46.180Z,97115.87
2022-12-11T19:32:14.303Z,97113.88
2022-12-11T19:34:42.605Z,97118.54
2022-12-11T19:37:10.729Z,97120.23
2022-12-11T19:39:40.020Z,97121.73
2022-12-11T19:42:08.238Z,97122.02
2022-12-11T19:44:36.363Z,97120.23
2022-12-11T19:47:04.714Z,97121.98
2022-12-11T19:49:33.012Z,97117.04
2022-12-11T19:52:01.021Z,97115.59
2022-12-11T19:54:29.124Z,97115.65
2022-12-11T19:56:57.164Z,97115.27
2022-12-11T19:59:25.287Z,97118.16
2022-12-11T20:01:53.514Z,97118.67
2022-12-11T20:04:21.499Z,97113.48
2022-12-11T20:06:49.505Z,97112.45
2022-12-11T20:09:18.163Z,97114.50
2022-12-11T20:11:49.284Z,97117.04
2022-12-11T20:14:26.846Z,97114.87
2022-12-11T20:17:13.936Z,97121.32
2022-12-11T20:19:43.192Z,97117.36
2022-12-11T20:22:11.695Z,97116.75
2022-12-11T20:24:39.999Z,97116.05
2022-12-11T20:27:09.810Z,97117.79
2022-12-11T20:29:39.098Z,97121.19
2022-12-11T20:32:07.638Z,97123.05
2022-12-11T20:34:36.089Z,97121.82
2022-12-11T20:37:04.231Z,97121.64
2022-12-11T20:39:32.177Z,97122.20
2022-12-11T20:42:01.336Z,97124.09
2022-12-11T20:44:29.442Z,97124.64
2022-12-11T20:46:57.359Z,97122.27
2022-12-11T20:49:25.801Z,97119.41
2022-12-11T20:51:54.036Z,97115.06
2022-12-11T20:54:22.245Z,97112.14
2022-12-11T20:56:51.167Z,97114.35
2022-12-11T20:59:19.306Z,97114.16
2022-12-11T21:01:47.499Z,97119.16
2022-12-11T21:04:15.883Z,97117.66
2022-12-11T21:06:44.083Z,97114.36
2022-12-11T21:09:15.915Z,97114.29
2022-12-11T21:11:46.177Z,97115.11
2022-12-11T21:14:15.873Z,97114.98
2022-12-11T21:16:44.328Z,97112.14
2022-12-11T21:19:16.713Z,97116.96
2022-12-11T21:21:45.653Z,97120.22
2022-12-11T21:24:23.026Z,97116.17
2022-12-11T21:26:51.118Z,97115.12
2022-12-11T21:29:19.096Z,97116.46
2022-12-11T21:31:47.449Z,97114.09
2022-12-11T21:34:17.407Z,97115.14
2022-12-11T21:36:49.012Z,97114.85
2022-12-11T21:39:18.743Z,97115.62
2022-12-11T21:41:47.026Z,97113.03
2022-12-11T21:45:26.039Z,97114.97
2022-12-11T21:47:03.376Z,97118.98
2022-12-11T21:49:31.451Z,97116.30
2022-12-11T21:51:59.435Z,97124.01
2022-12-11T21:54:27.448Z,97120.46
2022-12-11T21:56:55.592Z,97120.54
2022-12-11T21:59:23.652Z,97118.20
2022-12-11T22:01:51.780Z,97118.06
2022-12-11T22:04:20.042Z,97115.46
2022-12-11T22:06:50.132Z,97113.40
2022-12-11T22:09:18.607Z,97115.27
2022-12-11T22:11:47.097Z,97109.75
2022-12-11T22:14:16.615Z,97115.70
2022-12-11T22:16:45.759Z,97115.64
2022-12-11T22:19:14.026Z,97111.64
2022-12-11T22:21:42.091Z,97110.53
2022-12-11T22:24:10.176Z,97112.34
2022-12-11T22:26:38.209Z,97113.91
2022-12-11T22:29:06.193Z,97113.53
2022-12-11T22:31:34.268Z,97108.05
2022-12-11T22:34:06.764Z,97112.55
2022-12-11T22:36:37.443Z,97110.84
2022-12-11T22:39:05.582Z,97112.75
2022-12-11T22:41:33.982Z,97110.05
2022-12-11T22:44:01.955Z,97108.16
2022-12-11T22:46:31.257Z,97108.42
2022-12-11T22:49:00.283Z,97112.77
2022-12-11T22:51:28.288Z,97109.31
2022-12-11T22:53:56.357Z,97112.53
2022-12-11T22:56:24.207Z,97110.64
2022-12-11T22:58:52.313Z,97110.98
2022-12-11T23:01:23.254Z,97111.70
2022-12-11T23:03:51.497Z,97104.98
2022-12-11T23:06:22.798Z,97108.66
2022-12-11T23:08:51.185Z,97100.02
2022-12-11T23:11:26.095Z,97102.92
2022-12-11T23:13:55.189Z,97098.73
2022-12-11T23:16:24.921Z,97099.30
2022-12-11T23:18:56.179Z,97102.32
2022-12-11T23:21:25.134Z,97095.09
2022-12-11T23:23:53.053Z,97098.00
2022-12-11T23:26:22.578Z,97097.71
2022-12-11T23:28:50.709Z,97101.49
2022-12-11T23:31:18.625Z,97102.84
2022-12-11T23:33:47.748Z,97100.70
2022-12-11T23:36:15.881Z,97099.52
2022-12-11T23:38:48.320Z,97098.98
2022-12-11T23:41:19.192Z,97095.00
2022-12-11T23:43:47.133Z,97094.20
2022-12-11T23:46:19.423Z,97095.30
2022-12-11T23:48:48.399Z,97094.31
2022-12-11T23:51:19.528Z,97091.58
2022-12-11T23:53:48.085Z,97095.90
2022-12-11T23:56:25.560Z,97097.29
2022-12-11T23:58:54.773Z,97099.68
